createdAt,value
2022-08-27T00:00:37.104Z,22.27
2022-08-27T00:01:40.688Z,22.19
2022-08-27T00:02:44.939Z,22.02
2022-08-27T00:03:48.355Z,16.15
2022-08-27T00:04:51.642Z,16.64
2022-08-27T00:05:54.880Z,20.38
2022-08-27T00:06:58.898Z,19.02
2022-08-27T00:08:03.766Z,19.01
2022-08-27T00:09:07.153Z,24.64
2022-08-27T00:10:14.448Z,15.76
2022-08-27T00:11:18.988Z,19.22
2022-08-27T00:12:22.241Z,14.51
2022-08-27T00:13:25.807Z,14.61
2022-08-27T00:14:29.066Z,15.82
2022-08-27T00:15:33.008Z,15.92
2022-08-27T00:16:36.660Z,15.02
2022-08-27T00:17:39.871Z,17.23
2022-08-27T00:18:47.386Z,21.06
2022-08-27T00:19:50.051Z,16.97
2022-08-27T00:20:53.252Z,17.44
2022-08-27T00:21:56.496Z,17.35
2022-08-27T00:23:00.219Z,20.90
2022-08-27T00:24:03.778Z,19.79
2022-08-27T00:25:07.578Z,22.87
2022-08-27T00:26:11.626Z,21.37
2022-08-27T00:27:14.870Z,17.07
2022-08-27T00:28:18.648Z,19.96
2022-08-27T00:29:21.892Z,17.57
2022-08-27T00:30:25.620Z,20.67
2022-08-27T00:31:29.028Z,16.54
2022-08-27T00:32:32.398Z,19.43
2022-08-27T00:33:36.042Z,19.01
2022-08-27T00:34:39.581Z,15.06
2022-08-27T00:35:42.814Z,16.32
2022-08-27T00:36:46.442Z,17.28
2022-08-27T00:37:49.755Z,18.04
2022-08-27T00:38:53.986Z,18.54
2022-08-27T00:39:57.416Z,18.09
2022-08-27T00:41:01.040Z,15.86
2022-08-27T00:42:05.857Z,18.64
2022-08-27T00:43:09.591Z,19.21
2022-08-27T00:44:13.434Z,17.34
2022-08-27T00:45:20.250Z,16.92
2022-08-27T00:46:47.125Z,24.78
2022-08-27T00:47:56.473Z,20.40
2022-08-27T00:49:06.326Z,20.36
2022-08-27T00:50:16.052Z,15.93
2022-08-27T00:51:20.987Z,17.33
2022-08-27T00:52:27.927Z,17.00
2022-08-27T00:53:33.749Z,15.26
2022-08-27T00:54:36.928Z,22.74
2022-08-27T00:55:53.554Z,16.53
2022-08-27T00:56:58.217Z,16.53
2022-08-27T00:58:20.739Z,20.70
2022-08-27T00:59:28.191Z,14.57
2022-08-27T01:00:32.261Z,15.90
2022-08-27T01:01:37.301Z,16.06
2022-08-27T01:02:41.627Z,17.03
2022-08-27T01:03:48.454Z,13.14
2022-08-27T01:04:58.385Z,20.94
2022-08-27T01:06:05.069Z,16.94
2022-08-27T01:07:09.814Z,18.13
2022-08-27T01:08:19.092Z,16.46
2022-08-27T01:09:23.052Z,16.67
2022-08-27T01:10:29.022Z,14.23
2022-08-27T01:11:32.775Z,22.87
2022-08-27T01:12:36.916Z,16.94
2022-08-27T01:13:59.259Z,16.35
2022-08-27T01:14:46.941Z,20.16
2022-08-27T01:15:52.531Z,16.78
2022-08-27T01:16:58.808Z,16.14
2022-08-27T01:18:04.778Z,19.25
2022-08-27T01:19:11.559Z,21.69
2022-08-27T01:20:21.824Z,19.16
2022-08-27T01:21:28.624Z,21.08
2022-08-27T01:22:44.379Z,19.23
2022-08-27T01:23:56.876Z,21.06
2022-08-27T01:25:03.299Z,19.06
2022-08-27T01:26:09.295Z,23.81
2022-08-27T01:27:16.184Z,21.94
2022-08-27T01:28:23.554Z,18.06
2022-08-27T01:29:27.004Z,24.18
2022-08-27T01:30:30.828Z,23.99
2022-08-27T01:31:34.176Z,24.05
2022-08-27T01:32:37.883Z,22.46
2022-08-27T01:33:42.908Z,20.62
2022-08-27T01:34:47.060Z,17.44
2022-08-27T01:35:51.700Z,22.42
2022-08-27T01:36:57.632Z,19.93
2022-08-27T01:38:00.111Z,20.89
2022-08-27T01:39:03.783Z,17.21
2022-08-27T01:40:09.973Z,22.28
2022-08-27T01:41:16.171Z,18.90
2022-08-27T01:42:24.343Z,20.77
2022-08-27T01:43:28.689Z,23.99
2022-08-27T01:44:47.362Z,21.06
2022-08-27T01:45:51.927Z,18.30
2022-08-27T01:46:55.609Z,16.76
2022-08-27T01:47:59.492Z,20.97
2022-08-27T01:49:02.761Z,16.31
2022-08-27T01:50:15.471Z,16.56
2022-08-27T01:51:19.137Z,14.03
2022-08-27T01:52:25.122Z,15.32
2022-08-27T01:53:28.251Z,12.59
2022-08-27T01:54:32.840Z,14.21
2022-08-27T01:55:36.778Z,12.57
2022-08-27T01:56:40.403Z,12.48
2022-08-27T01:57:44.443Z,12.51
2022-08-27T01:58:47.866Z,8.93
2022-08-27T01:59:55.791Z,10.58
2022-08-27T02:01:02.898Z,10.05
2022-08-27T02:02:07.498Z,9.67
2022-08-27T02:03:11.671Z,7.64
2022-08-27T02:04:14.954Z,10.06
2022-08-27T02:05:18.751Z,7.59
2022-08-27T02:06:22.994Z,7.97
2022-08-27T02:07:26.221Z,9.98
2022-08-27T02:08:29.516Z,9.08
2022-08-27T02:09:33.231Z,8.27
2022-08-27T02:10:38.858Z,8.98
2022-08-27T02:11:44.950Z,10.09
2022-08-27T02:12:47.125Z,6.52
2022-08-27T02:13:50.351Z,9.14
2022-08-27T02:14:53.572Z,6.22
2022-08-27T02:15:56.826Z,9.14
2022-08-27T02:17:00.107Z,5.76
2022-08-27T02:18:05.361Z,6.87
2022-08-27T02:19:09.890Z,9.51
2022-08-27T02:20:16.148Z,6.89
2022-08-27T02:21:19.507Z,6.42
2022-08-27T02:22:23.865Z,8.39
2022-08-27T02:23:27.019Z,7.00
2022-08-27T02:24:30.349Z,5.79
2022-08-27T02:25:33.594Z,5.19
2022-08-27T02:26:37.570Z,6.18
2022-08-27T02:27:43.588Z,7.01
2022-08-27T02:28:46.725Z,10.62
2022-08-27T02:29:51.676Z,5.87
2022-08-27T02:30:55.073Z,14.83
2022-08-27T02:31:58.279Z,9.08
2022-08-27T02:33:03.827Z,11.39
2022-08-27T02:34:07.490Z,9.18
2022-08-27T02:35:10.743Z,6.09
2022-08-27T02:36:14.577Z,7.86
2022-08-27T02:37:17.899Z,8.56
2022-08-27T02:38:21.029Z,7.67
2022-08-27T02:39:24.271Z,6.05
2022-08-27T02:40:29.120Z,8.65
2022-08-27T02:41:32.434Z,8.46
2022-08-27T02:42:35.677Z,6.41
2022-08-27T02:43:38.916Z,8.82
2022-08-27T02:44:42.865Z,7.31
2022-08-27T02:45:46.252Z,7.62
2022-08-27T02:46:50.048Z,8.89
2022-08-27T02:47:54.705Z,10.71
2022-08-27T02:48:57.887Z,9.69
2022-08-27T02:50:01.519Z,9.25
2022-08-27T02:51:05.643Z,10.67
2022-08-27T02:52:09.200Z,7.72
2022-08-27T02:53:12.435Z,10.28
2022-08-27T02:54:15.711Z,9.07
2022-08-27T02:55:18.992Z,8.84
2022-08-27T02:56:23.029Z,8.50
2022-08-27T02:57:26.663Z,10.32
2022-08-27T02:58:29.927Z,9.06
2022-08-27T02:59:33.176Z,9.79
2022-08-27T03:00:37.383Z,9.31
2022-08-27T03:01:40.874Z,9.87
2022-08-27T03:02:44.759Z,15.60
2022-08-27T03:03:48.066Z,7.91
2022-08-27T03:04:51.404Z,6.51
2022-08-27T03:05:54.989Z,6.61
2022-08-27T03:06:58.729Z,8.06
2022-08-27T03:08:02.955Z,6.97
2022-08-27T03:09:06.199Z,9.17
2022-08-27T03:10:11.552Z,8.39
2022-08-27T03:11:14.795Z,8.04
2022-08-27T03:12:18.037Z,7.62
2022-08-27T03:13:21.297Z,6.22
2022-08-27T03:14:24.710Z,7.55
2022-08-27T03:15:28.012Z,8.24
2022-08-27T03:16:34.107Z,6.85
2022-08-27T03:17:55.835Z,8.98
2022-08-27T03:18:59.071Z,12.11
2022-08-27T03:20:03.725Z,9.37
2022-08-27T03:21:07.755Z,7.48
2022-08-27T03:22:11.077Z,8.25
2022-08-27T03:23:15.627Z,6.89
2022-08-27T03:24:19.274Z,8.55
2022-08-27T03:25:23.881Z,7.84
2022-08-27T03:26:29.740Z,10.68
2022-08-27T03:27:32.867Z,6.89
2022-08-27T03:28:36.121Z,7.37
2022-08-27T03:29:39.337Z,8.50
2022-08-27T03:30:44.638Z,8.06
2022-08-27T03:31:49.545Z,6.18
2022-08-27T03:32:52.784Z,8.68
2022-08-27T03:33:59.206Z,8.73
2022-08-27T03:35:02.734Z,7.55
2022-08-27T03:36:08.234Z,7.79
2022-08-27T03:37:11.501Z,6.69
2022-08-27T03:38:15.729Z,5.17
2022-08-27T03:39:19.198Z,6.15
2022-08-27T03:40:22.876Z,7.69
2022-08-27T03:41:43.793Z,12.51
2022-08-27T03:42:31.596Z,6.19
2022-08-27T03:43:35.439Z,6.71
2022-08-27T03:44:38.659Z,6.53
2022-08-27T03:45:52.810Z,5.94
2022-08-27T03:46:53.799Z,5.00
2022-08-27T03:47:57.090Z,5.54
2022-08-27T03:49:00.314Z,6.28
2022-08-27T03:50:05.426Z,5.73
2022-08-27T03:51:11.773Z,9.33
2022-08-27T03:52:15.255Z,6.06
2022-08-27T03:53:20.250Z,6.87
2022-08-27T03:54:24.520Z,6.42
2022-08-27T03:55:27.917Z,4.59
2022-08-27T03:56:33.033Z,5.46
2022-08-27T03:57:36.857Z,7.36
2022-08-27T03:58:40.788Z,6.74
2022-08-27T03:59:44.347Z,5.55
2022-08-27T04:00:48.110Z,5.29
2022-08-27T04:01:51.486Z,10.26
2022-08-27T04:02:55.488Z,4.91
2022-08-27T04:03:58.693Z,5.06
2022-08-27T04:05:01.843Z,8.98
2022-08-27T04:06:05.513Z,6.81
2022-08-27T04:07:10.073Z,5.04
2022-08-27T04:08:13.291Z,4.22
2022-08-27T04:09:17.666Z,10.04
2022-08-27T04:10:22.557Z,5.79
2022-08-27T04:11:25.827Z,6.16
2022-08-27T04:12:29.102Z,6.28
2022-08-27T04:13:32.354Z,6.44
2022-08-27T04:14:35.622Z,4.08
2022-08-27T04:15:44.413Z,6.53
2022-08-27T04:16:48.140Z,5.08
2022-08-27T04:17:53.287Z,3.40
2022-08-27T04:18:56.571Z,7.34
2022-08-27T04:20:08.663Z,5.08
2022-08-27T04:21:10.757Z,4.04
2022-08-27T04:22:14.493Z,6.58
2022-08-27T04:23:17.962Z,5.43
2022-08-27T04:24:21.221Z,4.70
2022-08-27T04:25:24.472Z,4.66
2022-08-27T04:26:28.712Z,6.85
2022-08-27T04:27:31.942Z,5.25
2022-08-27T04:28:38.846Z,5.06
2022-08-27T04:29:42.620Z,7.19
2022-08-27T04:30:46.696Z,5.72
2022-08-27T04:31:50.152Z,5.35
2022-08-27T04:32:53.479Z,7.06
2022-08-27T04:33:57.121Z,7.31
2022-08-27T04:35:00.914Z,5.16
2022-08-27T04:36:07.812Z,8.89
2022-08-27T04:37:11.103Z,7.65
2022-08-27T04:38:14.819Z,9.27
2022-08-27T04:39:19.848Z,8.46
2022-08-27T04:40:25.565Z,7.27
2022-08-27T04:41:30.589Z,8.29
2022-08-27T04:42:33.764Z,6.59
2022-08-27T04:43:36.980Z,4.52
2022-08-27T04:44:40.267Z,6.21
2022-08-27T04:45:48.302Z,5.01
2022-08-27T04:46:58.469Z,11.47
2022-08-27T04:48:01.611Z,5.26
2022-08-27T04:49:12.664Z,4.09
2022-08-27T04:50:19.254Z,3.23
2022-08-27T04:51:25.226Z,5.38
2022-08-27T04:52:28.506Z,4.69
2022-08-27T04:53:31.737Z,3.20
2022-08-27T04:54:35.974Z,3.94
2022-08-27T04:55:48.455Z,2.66
2022-08-27T04:56:52.032Z,4.37
2022-08-27T04:57:55.258Z,6.53
2022-08-27T04:58:58.687Z,4.86
2022-08-27T05:00:02.055Z,5.38
2022-08-27T05:01:06.799Z,4.46
2022-08-27T05:02:10.473Z,4.52
2022-08-27T05:03:15.259Z,5.04
2022-08-27T05:04:19.000Z,3.08
2022-08-27T05:05:23.107Z,6.20
2022-08-27T05:06:27.796Z,7.36
2022-08-27T05:07:46.215Z,4.97
2022-08-27T05:08:50.565Z,6.46
2022-08-27T05:09:54.126Z,4.40
2022-08-27T05:10:58.163Z,4.13
2022-08-27T05:12:01.458Z,5.78
2022-08-27T05:13:04.900Z,5.61
2022-08-27T05:14:11.204Z,3.95
2022-08-27T05:15:14.538Z,2.98
2022-08-27T05:16:21.464Z,4.42
2022-08-27T05:17:24.761Z,4.82
2022-08-27T05:18:28.421Z,4.06
2022-08-27T05:19:32.452Z,2.92
2022-08-27T05:20:42.329Z,4.51
2022-08-27T05:21:48.614Z,4.05
2022-08-27T05:22:51.977Z,6.43
2022-08-27T05:23:57.184Z,2.64
2022-08-27T05:25:00.957Z,4.23
2022-08-27T05:26:04.186Z,4.54
2022-08-27T05:27:07.448Z,3.24
2022-08-27T05:28:13.265Z,4.19
2022-08-27T05:29:16.876Z,4.52
2022-08-27T05:30:20.907Z,10.72
2022-08-27T05:31:24.160Z,4.37
2022-08-27T05:32:27.355Z,3.54
2022-08-27T05:33:30.601Z,2.64
2022-08-27T05:34:33.712Z,2.61
2022-08-27T05:35:45.377Z,3.91
2022-08-27T05:36:49.314Z,5.45
2022-08-27T05:37:54.062Z,4.31
2022-08-27T05:38:59.103Z,2.62
2022-08-27T05:40:04.329Z,3.81
2022-08-27T05:41:10.490Z,2.55
2022-08-27T05:42:14.343Z,3.18
2022-08-27T05:43:18.655Z,2.84
2022-08-27T05:44:40.631Z,2.89
2022-08-27T05:45:27.092Z,2.85
2022-08-27T05:46:30.629Z,3.25
2022-08-27T05:47:33.818Z,3.47
2022-08-27T05:48:40.757Z,2.42
2022-08-27T05:49:45.000Z,3.69
2022-08-27T05:50:48.668Z,3.29
2022-08-27T05:51:51.882Z,5.97
2022-08-27T05:52:55.193Z,3.12
2022-08-27T05:54:08.959Z,3.17
2022-08-27T05:55:12.140Z,3.22
2022-08-27T05:56:22.055Z,4.06
2022-08-27T05:57:25.318Z,3.68
2022-08-27T05:58:46.626Z,2.15
2022-08-27T06:00:08.224Z,2.90
2022-08-27T06:01:19.754Z,4.80
2022-08-27T06:02:23.060Z,3.49
2022-08-27T06:03:26.254Z,6.49
2022-08-27T06:04:29.651Z,3.94
2022-08-27T06:05:32.926Z,3.76
2022-08-27T06:06:38.216Z,3.77
2022-08-27T06:07:41.502Z,2.46
2022-08-27T06:08:44.718Z,4.14
2022-08-27T06:09:47.968Z,3.81
2022-08-27T06:10:52.111Z,5.00
2022-08-27T06:11:56.948Z,2.06
2022-08-27T06:13:00.258Z,4.57
2022-08-27T06:14:04.006Z,4.05
2022-08-27T06:15:07.833Z,2.36
2022-08-27T06:16:15.843Z,3.05
2022-08-27T06:17:19.239Z,6.09
2022-08-27T06:18:22.479Z,2.78
2022-08-27T06:19:26.112Z,4.96
2022-08-27T06:20:29.554Z,3.22
2022-08-27T06:21:32.995Z,7.49
2022-08-27T06:22:36.116Z,3.32
2022-08-27T06:23:39.643Z,3.80
2022-08-27T06:24:43.182Z,2.56
2022-08-27T06:25:46.690Z,4.38
2022-08-27T06:26:50.240Z,3.31
2022-08-27T06:27:53.530Z,3.76
2022-08-27T06:28:57.517Z,4.66
2022-08-27T06:30:01.024Z,6.57
2022-08-27T06:31:25.595Z,5.95
2022-08-27T06:32:28.763Z,4.78
2022-08-27T06:33:32.359Z,4.80
2022-08-27T06:34:36.607Z,3.31
2022-08-27T06:35:39.860Z,2.37
2022-08-27T06:36:43.192Z,5.24
2022-08-27T06:37:46.533Z,3.54
2022-08-27T06:38:50.378Z,5.99
2022-08-27T06:39:53.676Z,3.42
2022-08-27T06:40:57.722Z,5.16
2022-08-27T06:42:02.801Z,7.18
2022-08-27T06:43:08.151Z,3.43
2022-08-27T06:44:12.776Z,2.58
2022-08-27T06:45:15.996Z,4.96
2022-08-27T06:46:22.323Z,3.49
2022-08-27T06:47:25.627Z,4.26
2022-08-27T06:48:28.878Z,5.36
2022-08-27T06:49:33.881Z,5.57
2022-08-27T06:50:40.188Z,3.39
2022-08-27T06:51:46.367Z,3.86
2022-08-27T06:52:49.610Z,3.69
2022-08-27T06:53:54.753Z,4.86
2022-08-27T06:54:57.998Z,4.04
2022-08-27T06:56:01.348Z,3.18
2022-08-27T06:57:04.715Z,3.17
2022-08-27T06:58:08.042Z,3.94
2022-08-27T06:59:14.513Z,2.45
2022-08-27T07:00:18.662Z,4.57
2022-08-27T07:01:34.460Z,4.39
2022-08-27T07:02:38.275Z,2.54
2022-08-27T07:03:43.128Z,7.38
2022-08-27T07:04:46.867Z,2.92
2022-08-27T07:05:50.153Z,5.26
2022-08-27T07:06:53.572Z,10.20
2022-08-27T07:07:56.595Z,4.76
2022-08-27T07:08:59.910Z,4.83
2022-08-27T07:10:04.267Z,3.54
2022-08-27T07:11:09.622Z,2.68
2022-08-27T07:12:13.019Z,3.07
2022-08-27T07:13:16.362Z,4.41
2022-08-27T07:14:19.509Z,5.59
2022-08-27T07:15:23.175Z,4.28
2022-08-27T07:16:30.200Z,4.19
2022-08-27T07:17:33.972Z,4.05
2022-08-27T07:18:38.251Z,3.78
2022-08-27T07:19:42.896Z,4.48
2022-08-27T07:20:46.245Z,4.57
2022-08-27T07:21:50.237Z,5.12
2022-08-27T07:22:55.156Z,3.46
2022-08-27T07:24:00.431Z,3.24
2022-08-27T07:25:04.016Z,3.56
2022-08-27T07:26:12.798Z,2.36
2022-08-27T07:27:16.135Z,8.12
2022-08-27T07:28:19.402Z,5.23
2022-08-27T07:29:22.608Z,3.27
2022-08-27T07:30:27.341Z,3.41
2022-08-27T07:31:30.708Z,5.06
2022-08-27T07:32:34.277Z,3.41
2022-08-27T07:33:38.499Z,4.37
2022-08-27T07:34:41.656Z,4.15
2022-08-27T07:35:46.383Z,3.58
2022-08-27T07:36:50.829Z,4.45
2022-08-27T07:37:54.068Z,5.68
2022-08-27T07:39:01.329Z,4.59
2022-08-27T07:40:05.793Z,3.83
2022-08-27T07:41:12.009Z,3.68
2022-08-27T07:42:34.041Z,5.61
2022-08-27T07:43:56.175Z,5.04
2022-08-27T07:44:59.567Z,2.35
2022-08-27T07:46:03.406Z,6.23
2022-08-27T07:47:06.695Z,5.58
2022-08-27T07:48:10.044Z,2.39
2022-08-27T07:49:13.371Z,3.26
2022-08-27T07:50:17.218Z,4.42
2022-08-27T07:51:21.887Z,4.52
2022-08-27T07:52:26.682Z,3.74
2022-08-27T07:53:29.971Z,3.23
2022-08-27T07:54:33.814Z,3.28
2022-08-27T07:55:38.654Z,4.05
2022-08-27T07:56:42.538Z,6.44
2022-08-27T07:57:48.024Z,2.86
2022-08-27T07:58:51.236Z,6.97
2022-08-27T07:59:54.540Z,9.45
2022-08-27T08:00:58.311Z,3.24
2022-08-27T08:02:01.730Z,2.47
2022-08-27T08:03:05.032Z,7.49
2022-08-27T08:04:09.748Z,4.89
2022-08-27T08:05:16.198Z,4.96
2022-08-27T08:06:19.794Z,2.15
2022-08-27T08:07:24.406Z,3.59
2022-08-27T08:08:27.780Z,3.21
2022-08-27T08:09:31.741Z,3.25
2022-08-27T08:10:38.861Z,5.25
2022-08-27T08:11:42.114Z,4.59
2022-08-27T08:12:45.551Z,3.67
2022-08-27T08:13:48.804Z,4.33
2022-08-27T08:14:53.821Z,5.67
2022-08-27T08:15:58.851Z,7.14
2022-08-27T08:17:02.929Z,4.87
2022-08-27T08:18:07.844Z,3.68
2022-08-27T08:19:12.099Z,5.02
2022-08-27T08:20:30.881Z,3.51
2022-08-27T08:21:21.113Z,2.70
2022-08-27T08:22:24.348Z,5.53
2022-08-27T08:23:28.304Z,4.53
2022-08-27T08:24:31.564Z,3.55
2022-08-27T08:25:35.551Z,3.12
2022-08-27T08:26:41.416Z,4.51
2022-08-27T08:27:44.927Z,2.99
2022-08-27T08:28:48.197Z,9.70
2022-08-27T08:29:51.421Z,9.07
2022-08-27T08:30:55.075Z,9.12
2022-08-27T08:31:58.258Z,7.52
2022-08-27T08:33:01.522Z,6.96
2022-08-27T08:34:04.722Z,5.75
2022-08-27T08:35:08.655Z,6.49
2022-08-27T08:36:14.400Z,6.16
2022-08-27T08:37:20.939Z,7.52
2022-08-27T08:38:25.591Z,4.88
2022-08-27T08:39:29.163Z,4.01
2022-08-27T08:40:36.977Z,7.38
2022-08-27T08:41:52.733Z,4.51
2022-08-27T08:42:56.279Z,5.77
2022-08-27T08:44:05.484Z,5.49
2022-08-27T08:45:07.703Z,4.07
2022-08-27T08:46:16.904Z,3.37
2022-08-27T08:47:26.935Z,2.48
2022-08-27T08:48:32.239Z,5.02
2022-08-27T08:49:41.881Z,7.19
2022-08-27T08:51:03.585Z,7.92
2022-08-27T08:52:30.366Z,5.90
2022-08-27T08:53:36.910Z,4.68
2022-08-27T08:54:40.050Z,4.72
2022-08-27T08:55:52.593Z,5.92
2022-08-27T08:57:05.448Z,4.28
2022-08-27T08:58:15.281Z,4.82
2022-08-27T08:59:37.616Z,4.31
2022-08-27T09:00:43.648Z,12.54
2022-08-27T09:01:48.817Z,8.69
2022-08-27T09:02:54.748Z,6.56
2022-08-27T09:04:01.751Z,4.06
2022-08-27T09:05:08.107Z,8.29
2022-08-27T09:06:31.547Z,10.64
2022-08-27T09:08:44.337Z,5.22
2022-08-27T09:10:03.417Z,9.82
2022-08-27T09:11:10.715Z,6.06
2022-08-27T09:12:18.728Z,5.81
2022-08-27T09:13:28.463Z,8.78
2022-08-27T09:14:38.046Z,6.88
2022-08-27T09:15:41.371Z,9.79
2022-08-27T09:16:44.919Z,30.54
2022-08-27T09:17:50.135Z,4.89
2022-08-27T09:18:53.679Z,5.36
2022-08-27T09:19:57.169Z,12.64
2022-08-27T09:21:12.747Z,6.91
2022-08-27T09:22:27.318Z,4.39
2022-08-27T09:23:34.120Z,4.42
2022-08-27T09:24:52.807Z,9.97
2022-08-27T09:25:56.062Z,7.18
2022-08-27T09:26:59.975Z,6.35
2022-08-27T09:28:14.800Z,6.47
2022-08-27T09:29:19.666Z,7.44
2022-08-27T09:30:30.599Z,6.41
2022-08-27T09:31:35.373Z,7.23
2022-08-27T09:32:39.237Z,2.47
2022-08-27T09:33:55.957Z,4.71
2022-08-27T09:34:48.032Z,6.46
2022-08-27T09:35:51.764Z,4.58
2022-08-27T09:37:14.811Z,5.79
2022-08-27T09:38:30.090Z,5.80
2022-08-27T09:39:36.843Z,6.72
2022-08-27T09:40:50.312Z,3.84
2022-08-27T09:41:53.545Z,3.50
2022-08-27T09:42:59.540Z,5.61
2022-08-27T09:44:08.247Z,8.41
2022-08-27T09:45:14.638Z,7.99
2022-08-27T09:46:24.461Z,5.94
2022-08-27T09:47:28.345Z,4.75
2022-08-27T09:48:34.958Z,3.94
2022-08-27T09:49:38.139Z,6.88
2022-08-27T09:50:50.416Z,3.38
2022-08-27T09:51:54.788Z,8.53
2022-08-27T09:53:00.548Z,5.64
2022-08-27T09:54:04.875Z,6.59
2022-08-27T09:55:08.507Z,3.98
2022-08-27T09:56:24.945Z,3.29
2022-08-27T09:57:34.484Z,5.09
2022-08-27T09:58:53.579Z,3.63
2022-08-27T09:59:56.942Z,7.86
2022-08-27T10:01:07.200Z,4.23
2022-08-27T10:02:16.726Z,3.09
2022-08-27T10:03:22.053Z,6.82
2022-08-27T10:04:38.380Z,4.29
2022-08-27T10:05:53.755Z,3.00
2022-08-27T10:06:57.254Z,3.98
2022-08-27T10:08:06.917Z,4.82
2022-08-27T10:09:19.682Z,2.98
2022-08-27T10:10:40.699Z,7.86
2022-08-27T10:12:04.006Z,3.74
2022-08-27T10:13:19.272Z,9.71
2022-08-27T10:14:35.055Z,4.63
2022-08-27T10:15:53.687Z,7.33
2022-08-27T10:17:12.446Z,6.87
2022-08-27T10:18:22.083Z,6.63
2022-08-27T10:19:40.706Z,5.35
2022-08-27T10:21:08.867Z,4.93
2022-08-27T10:22:41.542Z,5.35
2022-08-27T10:24:04.977Z,4.39
2022-08-27T10:25:20.924Z,5.37
2022-08-27T10:26:33.744Z,4.41
2022-08-27T10:27:44.478Z,4.39
2022-08-27T10:29:09.515Z,5.85
2022-08-27T10:30:20.091Z,5.46
2022-08-27T10:31:32.604Z,3.73
2022-08-27T10:32:57.457Z,6.02
2022-08-27T10:34:13.346Z,3.57
2022-08-27T10:35:23.569Z,5.53
2022-08-27T10:36:38.334Z,4.16
2022-08-27T10:38:01.611Z,8.02
2022-08-27T10:39:23.391Z,6.49
2022-08-27T10:40:32.939Z,12.53
2022-08-27T10:41:43.130Z,7.34
2022-08-27T10:43:06.391Z,4.56
2022-08-27T10:44:31.689Z,3.49
2022-08-27T10:45:53.353Z,5.03
2022-08-27T10:47:08.897Z,8.24
2022-08-27T10:48:39.522Z,3.98
2022-08-27T10:50:04.232Z,4.48
2022-08-27T10:51:26.132Z,4.93
2022-08-27T10:52:36.451Z,5.16
2022-08-27T10:53:43.607Z,3.86
2022-08-27T10:55:14.543Z,7.22
2022-08-27T10:56:34.954Z,6.68
2022-08-27T10:57:59.036Z,3.94
2022-08-27T10:59:29.755Z,6.29
2022-08-27T11:00:51.987Z,3.38
2022-08-27T11:03:13.704Z,6.18
2022-08-27T11:04:26.907Z,13.64
2022-08-27T11:05:45.450Z,9.38
2022-08-27T11:06:56.392Z,4.54
2022-08-27T11:08:24.252Z,6.90
2022-08-27T11:09:51.592Z,3.12
2022-08-27T11:11:51.453Z,5.62
2022-08-27T11:12:18.171Z,5.17
2022-08-27T11:13:33.555Z,5.26
2022-08-27T11:14:52.603Z,8.83
2022-08-27T11:15:56.620Z,19.40
2022-08-27T11:17:06.483Z,4.12
2022-08-27T11:18:35.511Z,4.08
2022-08-27T11:20:04.561Z,7.64
2022-08-27T11:21:29.410Z,6.96
2022-08-27T11:22:45.520Z,7.16
2022-08-27T11:23:54.928Z,4.41
2022-08-27T11:25:17.059Z,4.63
2022-08-27T11:26:21.892Z,4.31
2022-08-27T11:27:28.557Z,9.58
2022-08-27T11:28:44.435Z,2.30
2022-08-27T11:30:00.218Z,6.38
2022-08-27T11:31:27.199Z,3.04
2022-08-27T11:32:34.058Z,7.90
2022-08-27T11:33:46.142Z,5.13
2022-08-27T11:34:55.535Z,3.57
2022-08-27T11:36:20.629Z,4.39
2022-08-27T11:37:48.418Z,7.97
2022-08-27T11:39:04.353Z,3.91
2022-08-27T11:40:34.635Z,4.91
2022-08-27T11:41:53.408Z,4.54
2022-08-27T11:42:59.654Z,6.43
2022-08-27T11:44:03.556Z,4.29
2022-08-27T11:45:26.508Z,4.49
2022-08-27T11:46:33.569Z,5.22
2022-08-27T11:47:37.172Z,3.93
2022-08-27T11:48:43.910Z,9.17
2022-08-27T11:49:56.883Z,9.29
2022-08-27T11:51:06.719Z,4.86
2022-08-27T11:52:10.678Z,6.74
2022-08-27T11:53:17.494Z,4.91
2022-08-27T11:54:30.748Z,4.93
2022-08-27T11:55:39.128Z,6.27
2022-08-27T11:56:43.366Z,3.83
2022-08-27T11:57:47.989Z,6.99
2022-08-27T11:58:53.173Z,6.32
2022-08-27T11:59:56.443Z,4.70
2022-08-27T12:01:03.915Z,7.89
2022-08-27T12:02:14.274Z,5.56
2022-08-27T12:03:24.085Z,7.33
2022-08-27T12:04:34.040Z,5.06
2022-08-27T12:05:49.301Z,4.32
2022-08-27T12:07:01.871Z,4.48
2022-08-27T12:08:27.006Z,5.14
2022-08-27T12:09:33.809Z,8.72
2022-08-27T12:11:05.832Z,3.49
2022-08-27T12:12:12.617Z,7.07
2022-08-27T12:13:35.506Z,3.72
2022-08-27T12:14:48.286Z,5.09
2022-08-27T12:17:37.132Z,4.05
2022-08-27T12:18:52.935Z,6.83
2022-08-27T12:20:14.849Z,3.84
2022-08-27T12:21:21.756Z,5.18
2022-08-27T12:23:08.448Z,7.11
2022-08-27T12:24:27.134Z,6.02
2022-08-27T12:25:30.802Z,4.94
2022-08-27T12:26:40.985Z,3.45
2022-08-27T12:27:47.841Z,6.65
2022-08-27T12:29:18.476Z,5.42
2022-08-27T12:30:34.209Z,3.86
2022-08-27T12:31:41.056Z,4.01
2022-08-27T12:32:46.032Z,5.31
2022-08-27T12:33:52.932Z,6.80
2022-08-27T12:35:05.852Z,3.96
2022-08-27T12:36:12.808Z,7.18
2022-08-27T12:37:19.500Z,7.26
2022-08-27T12:38:44.416Z,6.04
2022-08-27T12:39:52.406Z,5.10
2022-08-27T12:40:58.716Z,2.83
2022-08-27T12:42:01.993Z,4.31
2022-08-27T12:43:08.285Z,5.78
2022-08-27T12:44:17.948Z,8.01
2022-08-27T12:45:23.972Z,7.01
2022-08-27T12:46:28.714Z,7.89
2022-08-27T12:47:37.523Z,3.87
2022-08-27T12:48:46.950Z,8.40
2022-08-27T12:49:57.116Z,9.57
2022-08-27T12:51:09.974Z,6.78
2022-08-27T12:52:42.605Z,3.94
2022-08-27T12:53:58.542Z,2.77
2022-08-27T12:55:30.968Z,4.39
2022-08-27T12:57:02.342Z,5.06
2022-08-27T12:58:33.672Z,2.94
2022-08-27T12:59:55.530Z,4.74
2022-08-27T13:01:02.751Z,5.22
2022-08-27T13:02:27.870Z,4.29
2022-08-27T13:03:37.348Z,2.96
2022-08-27T13:04:42.905Z,6.58
2022-08-27T13:05:49.098Z,4.32
2022-08-27T13:06:52.896Z,4.41
2022-08-27T13:07:56.463Z,4.21
2022-08-27T13:09:03.156Z,5.32
2022-08-27T13:10:22.112Z,5.44
2022-08-27T13:11:28.821Z,6.47
2022-08-27T13:12:32.093Z,8.81
2022-08-27T13:13:36.535Z,6.96
2022-08-27T13:14:40.599Z,6.29
2022-08-27T13:15:47.251Z,3.02
2022-08-27T13:16:57.361Z,12.08
2022-08-27T13:18:03.185Z,6.59
2022-08-27T13:19:07.703Z,3.38
2022-08-27T13:20:18.545Z,8.71
2022-08-27T13:21:28.593Z,8.10
2022-08-27T13:22:38.292Z,7.34
2022-08-27T13:23:47.954Z,6.33
2022-08-27T13:24:54.078Z,3.97
2022-08-27T13:26:06.519Z,3.69
2022-08-27T13:27:09.777Z,6.61
2022-08-27T13:28:16.489Z,5.82
2022-08-27T13:29:20.211Z,5.47
2022-08-27T13:30:35.973Z,7.68
2022-08-27T13:31:30.737Z,5.13
2022-08-27T13:32:36.027Z,7.51
2022-08-27T13:33:40.866Z,11.57
2022-08-27T13:34:44.831Z,4.58
2022-08-27T13:35:48.293Z,4.49
2022-08-27T13:36:58.398Z,5.03
2022-08-27T13:38:02.978Z,2.72
2022-08-27T13:39:07.579Z,5.96
2022-08-27T13:40:32.653Z,4.49
2022-08-27T13:41:38.036Z,5.53
2022-08-27T13:42:44.509Z,4.45
2022-08-27T13:43:49.154Z,6.19
2022-08-27T13:44:56.592Z,7.98
2022-08-27T13:46:02.222Z,6.94
2022-08-27T13:47:08.260Z,4.40
2022-08-27T13:48:12.834Z,3.70
2022-08-27T13:49:22.548Z,6.44
2022-08-27T13:50:32.224Z,5.52
2022-08-27T13:51:35.869Z,6.35
2022-08-27T13:52:42.823Z,8.18
2022-08-27T13:54:07.021Z,8.92
2022-08-27T13:55:13.855Z,4.78
2022-08-27T13:56:33.394Z,7.57
2022-08-27T13:57:42.902Z,3.15
2022-08-27T13:58:46.371Z,4.65
2022-08-27T13:59:49.626Z,4.49
2022-08-27T14:00:54.160Z,8.76
2022-08-27T14:02:01.136Z,4.29
2022-08-27T14:03:08.050Z,4.14
2022-08-27T14:04:14.944Z,6.22
2022-08-27T14:05:24.624Z,3.59
2022-08-27T14:06:43.305Z,7.19
2022-08-27T14:07:49.930Z,3.89
2022-08-27T14:08:53.396Z,5.30
2022-08-27T14:10:01.656Z,5.56
2022-08-27T14:11:07.738Z,4.46
2022-08-27T14:12:14.492Z,6.49
2022-08-27T14:13:23.569Z,6.18
2022-08-27T14:14:30.053Z,4.27
2022-08-27T14:15:42.496Z,4.44
2022-08-27T14:16:49.374Z,10.74
2022-08-27T14:17:52.689Z,6.06
2022-08-27T14:19:08.700Z,6.26
2022-08-27T14:20:13.189Z,6.48
2022-08-27T14:21:16.637Z,7.25
2022-08-27T14:22:20.143Z,3.19
2022-08-27T14:23:23.645Z,6.19
2022-08-27T14:24:28.461Z,7.66
2022-08-27T14:25:33.621Z,4.13
2022-08-27T14:26:38.662Z,4.70
2022-08-27T14:27:47.901Z,6.94
2022-08-27T14:28:47.357Z,3.82
2022-08-27T14:29:50.597Z,6.21
2022-08-27T14:30:54.130Z,9.46
2022-08-27T14:31:57.401Z,3.82
2022-08-27T14:33:02.360Z,3.83
2022-08-27T14:34:05.712Z,5.37
2022-08-27T14:35:10.238Z,3.24
2022-08-27T14:36:14.309Z,4.32
2022-08-27T14:37:17.575Z,3.97
2022-08-27T14:38:23.625Z,4.48
2022-08-27T14:39:27.346Z,6.29
2022-08-27T14:40:30.882Z,4.18
2022-08-27T14:41:35.904Z,5.98
2022-08-27T14:42:39.566Z,3.59
2022-08-27T14:43:43.099Z,7.39
2022-08-27T14:44:48.113Z,3.28
2022-08-27T14:45:53.094Z,4.17
2022-08-27T14:46:58.050Z,4.52
2022-08-27T14:48:02.322Z,5.59
2022-08-27T14:49:09.961Z,4.04
2022-08-27T14:50:13.736Z,3.08
2022-08-27T14:51:23.318Z,5.46
2022-08-27T14:52:26.610Z,4.18
2022-08-27T14:53:30.143Z,5.13
2022-08-27T14:54:33.977Z,11.21